Terminal Aerodrome Forecast
Issued by NWS Tampa Bay Area, FL

Home | Current Version | Previous Version | Text Only | Print | Product List | Glossary On
Versions: 1 2 3 4 5 6 7 8 9 10 11 12 13 14 15 16 17 18 19 20 21
000
FTUS42 KTBW 232300 RRA
TAFFMY
TAF
KFMY 232343Z 2400/2424 17008KT P6SM SCT020 BKN060
     FM240500 18005KT 4SM BR FEW010 BKN020
     FM241000 18004KT 1SM BR FEW005 BKN020
     FM241300 19006KT 3SM BR FEW005 BKN020
     FM241700 21010KT P6SM SCT020 BKN035
     FM242300 22006KT P6SM SCT250=

USA.gov is the U.S. government's official web portal to all federal, state and local government web resources and services.